Mc Gee, Missouri
Current Conditions -  °F | °C
As of 8:53 PM on Saturday 24 Jan 2015 (Local Time) from KPOF Reporting Station
Clear Clear  
Wind Chill: 37°   Ceiling: Unl
Heat Index: 42°   Visibility: 10mi
Dew Point: 33°   Wind: 9mph
Humidity: 70%   Direction: 210°SSW
Pressure: 29.84"   Gusts: NA
Location:  37.0751°N, 90.1947°W
Report Text: KPOF 250253Z AUTO 21008KT 10SM CLR 06/01 A2984 RMK AO2 SLP110 T00560006 50002
Loading
Personal Weather Stations






























Interactive Weather Map New forecast layout! Learn more

10-Day Weather Forecast

Advertisements
Track Severe Weather on mobile